EST,Max TemperatureF,Mean TemperatureF,Min TemperatureF,Max Dew PointF,MeanDew PointF,Min DewpointF,Max Humidity, Mean Humidity, Min Humidity, Max Sea Level PressureIn, Mean Sea Level PressureIn, Min Sea Level PressureIn, Max VisibilityMiles, Mean VisibilityMiles, Min VisibilityMiles, Max Wind SpeedMPH, Mean Wind SpeedMPH, Max Gust SpeedMPH,PrecipitationIn, CloudCover, Events, WindDirDegrees
2012-1-1,48,38,28,43,32,19,100,85,69,30.09,29.81,29.64,10,8,1,29,13,45,0.13,6,Rain-Snow,234
2012-1-2,26,22,17,21,18,10,100,88,51,29.94,29.80,29.73,10,3,0,24,16,43,0.01,8,Fog-Snow,267
2012-1-3,18,10,1,16,7,-7,93,77,53,30.26,29.98,29.82,10,3,0,29,18,43,0.00,7,Fog-Snow,297
2012-1-4,25,13,1,20,7,-4,85,71,41,30.25,30.07,29.85,10,10,10,17,9,28,0.00,4,,234
2012-1-5,34,29,24,22,21,18,86,76,52,30.02,29.94,29.83,10,10,8,16,12,24,0.00,5,,254
2012-1-6,53,45,37,29,25,21,57,48,38,29.88,29.83,29.77,10,10,10,24,19,39,0.00,0,,244
2012-1-7,48,40,32,38,30,16,76,62,30,30.08,29.86,29.76,10,10,10,22,16,34,0.00,2,,269
2012-1-8,33,29,25,27,22,18,88,73,59,30.34,30.23,30.09,10,10,10,14,7,18,0.00,6,,304
2012-1-9,36,30,25,24,21,19,81,69,56,30.30,30.14,30.00,10,10,10,15,5,22,0.00,4,,181
2012-1-10,39,34,30,27,24,19,75,67,56,30.02,29.98,29.89,10,10,10,18,11,26,0.00,2,,260
2012-1-11,37,32,26,36,31,24,100,88,65,30.00,29.79,29.54,10,8,2,17,9,32,0.67,5,Rain,145
2012-1-12,42,38,33,40,37,34,100,96,87,29.51,29.41,29.28,10,6,1,22,8,31,0.29,8,Rain,205
2012-1-13,37,24,12,36,15,7,100,88,73,29.93,29.50,29.29,7,1,0,32,20,45,0.04,8,Fog-Rain-Snow,256
2012-1-14,17,14,12,14,11,10,93,86,79,30.16,29.98,29.81,10,4,1,20,13,28,0.00,8,Snow,261
2012-1-15,18,13,8,12,9,5,93,81,57,30.53,30.31,30.03,10,9,4,13,8,,0.00,5,Snow,295
2012-1-16,39,24,12,37,19,8,93,75,54,30.48,30.23,30.01,10,10,6,16,10,20,0.14,4,Rain,175
2012-1-17,51,42,33,46,41,26,100,86,70,29.96,29.73,29.58,10,9,5,30,18,47,0.11,7,Rain,232
2012-1-18,32,23,12,26,15,7,93,78,59,30.17,30.02,29.81,10,5,0,26,19,38,0.01,7,Fog-Snow,302
2012-1-19,30,21,12,25,17,7,100,82,43,30.14,29.92,29.76,10,5,1,20,9,38,0.01,6,Snow,230
2012-1-20,19,11,3,18,9,2,93,78,50,30.26,30.06,29.90,10,7,1,17,9,,0.04,6,Snow,271
2012-1-21,24,22,17,22,19,15,100,92,84,30.29,29.98,29.81,10,6,1,10,6,,0.37,7,Snow,149
2012-1-22,27,21,15,27,21,13,100,94,86,30.37,30.25,30.14,10,7,0,22,9,26,0.00,7,Fog,148
2012-1-23,46,36,27,43,34,27,100,95,79,30.20,29.94,29.69,10,6,0,28,14,36,0.14,7,Fog-Rain,172
2012-1-24,39,34,26,34,30,25,93,82,70,30.27,30.05,29.84,10,10,5,18,15,31,0.00,8,,262
2012-1-25,36,30,25,28,25,23,96,83,64,30.37,30.27,30.11,10,8,4,13,7,21,0.00,5,,292
2012-1-26,43,36,30,43,34,28,100,97,87,30.17,29.90,29.59,9,4,1,16,5,18,0.50,8,Rain,160
2012-1-27,50,40,28,49,36,25,100,95,80,30.03,29.63,29.39,10,6,0,31,15,44,0.24,8,Fog-Rain-Snow,248
2012-1-28,37,32,25,32,25,9,96,79,49,30.13,29.95,29.81,10,8,1,26,12,38,0.02,5,Snow,243
2012-1-29,36,30,23,28,17,10,100,66,39,30.18,30.06,29.93,10,8,0,26,15,38,0.01,5,Fog-Snow,252
2012-1-30,45,30,17,22,14,9,77,60,40,30.32,30.21,30.11,10,10,10,20,13,30,0.00,5,,243
2012-1-31,55,48,42,30,24,22,47,39,32,30.17,30.09,29.99,10,10,10,22,17,32,0.00,3,Rain,238